createdAt,value
2018-04-26T00:00:22.826Z,8.5
2018-04-26T00:01:44.363Z,8.47
2018-04-26T00:03:06.170Z,8.47
2018-04-26T00:04:27.976Z,8.47
2018-04-26T00:05:50.027Z,8.53
2018-04-26T00:07:12.089Z,8.52
2018-04-26T00:08:33.882Z,8.56
2018-04-26T00:09:55.684Z,8.48
2018-04-26T00:11:17.729Z,8.56
2018-04-26T00:12:39.273Z,8.48
2018-04-26T00:14:01.334Z,8.47
2018-04-26T00:15:23.139Z,8.44
2018-04-26T00:16:45.195Z,8.45
2018-04-26T00:18:07.262Z,8.41
2018-04-26T00:19:28.808Z,8.45
2018-04-26T00:20:50.857Z,8.43
2018-04-26T00:22:12.384Z,8.4
2018-04-26T00:23:34.440Z,8.45
2018-04-26T00:24:56.492Z,8.41
2018-04-26T00:26:18.557Z,8.48
2018-04-26T00:27:40.344Z,8.43
2018-04-26T00:29:02.392Z,8.43
2018-04-26T00:30:24.177Z,8.45
2018-04-26T00:31:45.710Z,8.45
2018-04-26T00:33:07.854Z,8.52
2018-04-26T00:34:29.907Z,8.45
2018-04-26T00:35:51.708Z,8.47
2018-04-26T00:37:13.761Z,8.45
2018-04-26T00:38:35.557Z,8.43
2018-04-26T00:39:57.613Z,8.38
2018-04-26T00:41:19.407Z,8.37
2018-04-26T00:42:41.210Z,8.37
2018-04-26T00:44:03.101Z,8.3
2018-04-26T00:45:25.161Z,8.33
2018-04-26T00:46:46.710Z,8.16
2018-04-26T00:48:08.573Z,8.12
2018-04-26T00:49:30.091Z,8.2
2018-04-26T00:50:51.631Z,8.16
2018-04-26T00:52:13.698Z,8.15
2018-04-26T00:53:35.240Z,8.07
2018-04-26T00:54:57.296Z,8.23
2018-04-26T00:56:19.104Z,8.2
2018-04-26T00:57:40.643Z,8.18
2018-04-26T00:59:02.704Z,8.12
2018-04-26T01:00:24.228Z,8.08
2018-04-26T01:01:46.280Z,8
2018-04-26T01:03:08.340Z,8.01
2018-04-26T01:04:30.139Z,8.04
2018-04-26T01:05:52.185Z,8.07
2018-04-26T01:07:14.252Z,8.12
2018-04-26T01:08:35.531Z,8.1
2018-04-26T01:09:57.594Z,8.18
2018-04-26T01:11:19.636Z,8.18
2018-04-26T01:12:41.686Z,8.19
2018-04-26T01:14:03.750Z,8.33
2018-04-26T01:15:25.781Z,8.28
2018-04-26T01:16:47.578Z,8.43
2018-04-26T01:18:09.640Z,8.45
2018-04-26T01:19:31.708Z,8.41
2018-04-26T01:20:53.489Z,8.41
2018-04-26T01:22:15.283Z,8.45
2018-04-26T01:23:36.815Z,8.52
2018-04-26T01:24:58.594Z,8.45
2018-04-26T01:26:20.725Z,8.52
2018-04-26T01:27:42.520Z,8.53
2018-04-26T01:29:04.308Z,8.52
2018-04-26T01:30:26.355Z,8.55
2018-04-26T01:31:48.151Z,8.61
2018-04-26T01:33:10.207Z,8.56
2018-04-26T01:34:32.003Z,8.61
2018-04-26T01:35:54.068Z,8.66
2018-04-26T01:37:16.124Z,8.62
2018-04-26T01:38:38.183Z,8.56
2018-04-26T01:40:00.242Z,8.71
2018-04-26T01:41:22.046Z,8.62
2018-04-26T01:42:43.844Z,8.68
2018-04-26T01:44:05.636Z,8.7
2018-04-26T01:45:26.908Z,8.65
2018-04-26T01:46:48.696Z,8.66
2018-04-26T01:48:10.478Z,8.63
2018-04-26T01:49:32.535Z,8.66
2018-04-26T01:50:54.075Z,8.53
2018-04-26T01:52:15.870Z,8.58
2018-04-26T01:53:37.673Z,8.53
2018-04-26T01:54:59.462Z,8.65
2018-04-26T01:56:20.997Z,8.65
2018-04-26T01:57:43.070Z,8.66
2018-04-26T01:59:04.607Z,8.65
2018-04-26T02:00:26.148Z,8.71
2018-04-26T02:01:47.957Z,8.71
2018-04-26T02:03:09.745Z,8.7
2018-04-26T02:04:31.540Z,8.73
2018-04-26T02:05:53.591Z,8.7
2018-04-26T02:07:15.662Z,8.83
2018-04-26T02:08:37.722Z,8.83
2018-04-26T02:09:59.524Z,8.74
2018-04-26T02:11:21.055Z,8.79
2018-04-26T02:12:43.110Z,8.76
2018-04-26T02:14:05.157Z,8.76
2018-04-26T02:15:26.512Z,8.8
2018-04-26T02:16:48.576Z,8.76
2018-04-26T02:18:10.360Z,8.89
2018-04-26T02:19:32.406Z,8.87
2018-04-26T02:20:54.214Z,8.77
2018-04-26T02:22:16.010Z,8.79
2018-04-26T02:23:37.807Z,8.83
2018-04-26T02:24:59.607Z,8.81
2018-04-26T02:26:21.665Z,8.81
2018-04-26T02:27:43.461Z,8.77
2018-04-26T02:29:05.512Z,8.76
2018-04-26T02:30:27.059Z,8.79
2018-04-26T02:31:49.127Z,8.8
2018-04-26T02:33:11.196Z,8.8
2018-04-26T02:34:33.006Z,8.81
2018-04-26T02:35:54.792Z,8.86
2018-04-26T02:37:16.839Z,8.8
2018-04-26T02:38:38.639Z,8.71
2018-04-26T02:40:00.171Z,8.79
2018-04-26T02:41:21.982Z,8.76
2018-04-26T02:42:43.863Z,8.74
2018-04-26T02:44:05.672Z,8.77
2018-04-26T02:45:26.939Z,8.83
2018-04-26T02:46:48.752Z,8.74
2018-04-26T02:48:10.829Z,8.79
2018-04-26T02:49:32.374Z,8.73
2018-04-26T02:50:54.440Z,8.83
2018-04-26T02:52:15.971Z,8.83
2018-04-26T02:53:37.771Z,8.87
2018-04-26T02:54:59.552Z,8.86
2018-04-26T02:56:21.614Z,8.86
2018-04-26T02:57:43.703Z,8.92
2018-04-26T02:59:05.235Z,8.95
2018-04-26T03:00:26.769Z,8.89
2018-04-26T03:01:48.831Z,8.91
2018-04-26T03:03:10.916Z,8.96
2018-04-26T03:04:32.979Z,8.91
2018-04-26T03:05:55.047Z,8.95
2018-04-26T03:07:16.871Z,8.91
2018-04-26T03:08:38.669Z,8.89
2018-04-26T03:10:00.732Z,8.91
2018-04-26T03:11:22.553Z,8.91
2018-04-26T03:12:44.639Z,8.96
2018-04-26T03:14:06.711Z,8.92
2018-04-26T03:15:28.761Z,8.98
2018-04-26T03:16:50.828Z,8.87
2018-04-26T03:18:12.895Z,8.98
2018-04-26T03:19:34.988Z,8.86
2018-04-26T03:20:56.552Z,8.83
2018-04-26T03:22:18.614Z,8.81
2018-04-26T03:23:40.675Z,8.8
2018-04-26T03:25:02.476Z,8.8
2018-04-26T03:26:24.537Z,8.83
2018-04-26T03:27:46.595Z,8.77
2018-04-26T03:29:08.653Z,8.77
2018-04-26T03:30:30.710Z,8.76
2018-04-26T03:31:52.767Z,8.73
2018-04-26T03:33:14.302Z,8.7
2018-04-26T03:34:35.834Z,8.71
2018-04-26T03:35:57.627Z,8.68
2018-04-26T03:37:19.459Z,8.71
2018-04-26T03:38:41.290Z,8.7
2018-04-26T03:40:03.083Z,8.61
2018-04-26T03:41:24.087Z,8.7
2018-04-26T03:42:45.362Z,8.73
2018-04-26T03:44:07.165Z,8.68
2018-04-26T03:45:29.045Z,8.7
2018-04-26T03:46:50.489Z,8.71
2018-04-26T03:48:12.558Z,8.68
2018-04-26T03:49:34.609Z,8.65
2018-04-26T03:50:56.409Z,8.71
2018-04-26T03:52:18.201Z,8.65
2018-04-26T03:53:40.345Z,8.71
2018-04-26T03:55:02.383Z,8.68
2018-04-26T03:56:24.440Z,8.7
2018-04-26T03:57:46.246Z,8.68
2018-04-26T03:59:07.791Z,8.71
2018-04-26T04:00:29.586Z,8.7
2018-04-26T04:01:51.804Z,8.73
2018-04-26T04:03:13.860Z,8.81
2018-04-26T04:04:35.909Z,8.74
2018-04-26T04:05:57.709Z,8.83
2018-04-26T04:07:19.754Z,8.76
2018-04-26T04:08:41.541Z,8.76
2018-04-26T04:10:03.587Z,8.76
2018-04-26T04:11:25.653Z,8.84
2018-04-26T04:12:47.190Z,8.71
2018-04-26T04:14:08.724Z,8.84
2018-04-26T04:15:30.791Z,8.74
2018-04-26T04:16:52.589Z,8.83
2018-04-26T04:18:14.643Z,8.83
2018-04-26T04:19:36.709Z,8.77
2018-04-26T04:20:58.263Z,8.77
2018-04-26T04:22:20.334Z,8.76
2018-04-26T04:23:42.130Z,8.81
2018-04-26T04:25:04.191Z,8.81
2018-04-26T04:26:25.982Z,8.84
2018-04-26T04:27:48.051Z,8.83
2018-04-26T04:29:10.210Z,8.84
2018-04-26T04:30:32.257Z,8.94
2018-04-26T04:31:54.326Z,8.98
2018-04-26T04:33:16.128Z,8.96
2018-04-26T04:34:38.189Z,8.94
2018-04-26T04:36:00.241Z,8.96
2018-04-26T04:37:21.782Z,9.04
2018-04-26T04:38:43.826Z,9.04
2018-04-26T04:40:05.633Z,8.99
2018-04-26T04:41:27.435Z,9.01
2018-04-26T04:42:49.493Z,9.04
2018-04-26T04:44:11.311Z,9.1
2018-04-26T04:45:33.119Z,9.01
2018-04-26T04:46:54.923Z,8.99
2018-04-26T04:48:16.720Z,9.04
2018-04-26T04:49:37.992Z,8.96
2018-04-26T04:51:00.079Z,8.98
2018-04-26T04:52:22.145Z,9.02
2018-04-26T04:53:44.218Z,8.96
2018-04-26T04:55:05.484Z,9.13
2018-04-26T04:56:27.562Z,8.99
2018-04-26T04:57:49.114Z,9.05
2018-04-26T04:59:11.169Z,9.04
2018-04-26T05:00:33.232Z,9.08
2018-04-26T05:01:55.391Z,9.11
2018-04-26T05:03:17.290Z,9.11
2018-04-26T05:04:39.371Z,9.15
2018-04-26T05:06:01.172Z,9.18
2018-04-26T05:07:23.389Z,9.31
2018-04-26T05:08:45.196Z,9.26
2018-04-26T05:10:06.731Z,9.29
2018-04-26T05:11:28.822Z,9.24
2018-04-26T05:12:50.366Z,9.32
2018-04-26T05:14:12.159Z,9.23
2018-04-26T05:15:34.066Z,9.29
2018-04-26T05:16:56.122Z,9.31
2018-04-26T05:18:18.184Z,9.32
2018-04-26T05:19:40.068Z,9.4
2018-04-26T05:21:02.240Z,9.33
2018-04-26T05:22:24.316Z,9.32
2018-04-26T05:23:46.111Z,9.32
2018-04-26T05:25:08.251Z,9.39
2018-04-26T05:26:30.050Z,9.39
2018-04-26T05:27:52.120Z,9.42
2018-04-26T05:29:14.184Z,9.48
2018-04-26T05:30:35.459Z,9.43
2018-04-26T05:31:57.515Z,9.39
2018-04-26T05:33:19.321Z,9.57
2018-04-26T05:34:41.366Z,9.57
2018-04-26T05:36:03.424Z,9.56
2018-04-26T05:37:25.223Z,9.51
2018-04-26T05:38:47.303Z,9.56
2018-04-26T05:40:09.105Z,9.57
2018-04-26T05:41:31.148Z,9.65
2018-04-26T05:42:53.235Z,9.71
2018-04-26T05:44:15.023Z,9.81
2018-04-26T05:45:36.826Z,9.81
2018-04-26T05:46:58.921Z,9.96
2018-04-26T05:48:20.723Z,9.99
2018-04-26T05:49:42.536Z,10.14
2018-04-26T05:51:04.077Z,10.23
2018-04-26T05:52:25.901Z,10.34
2018-04-26T05:53:47.967Z,10.42
2018-04-26T05:55:09.785Z,10.47
2018-04-26T05:56:31.590Z,10.4
2018-04-26T05:57:53.137Z,10.47
2018-04-26T05:59:15.211Z,10.41
2018-04-26T06:00:37.268Z,10.4
2018-04-26T06:01:59.322Z,10.42
2018-04-26T06:03:21.414Z,10.4
2018-04-26T06:04:43.597Z,10.45
2018-04-26T06:06:05.390Z,10.47
2018-04-26T06:07:26.915Z,10.45
2018-04-26T06:08:48.456Z,10.36
2018-04-26T06:10:10.279Z,10.3
2018-04-26T06:11:31.987Z,10.14
2018-04-26T06:12:53.521Z,10.15
2018-04-26T06:14:15.059Z,10.2
2018-04-26T06:15:36.332Z,10.33
2018-04-26T06:16:57.921Z,10.34
2018-04-26T06:18:19.609Z,10.51
2018-04-26T06:19:41.412Z,10.66
2018-04-26T06:21:03.211Z,10.66
2018-04-26T06:22:25.336Z,10.6
2018-04-26T06:23:46.853Z,10.51
2018-04-26T06:25:08.860Z,10.36
2018-04-26T06:26:30.953Z,10.3
2018-04-26T06:27:52.737Z,10.17
2018-04-26T06:29:14.824Z,10.23
2018-04-26T06:30:36.672Z,10.2
2018-04-26T06:31:58.484Z,10.34
2018-04-26T06:33:20.559Z,10.45
2018-04-26T06:34:42.710Z,10.63
2018-04-26T06:36:04.514Z,10.82
2018-04-26T06:37:26.611Z,11
2018-04-26T06:38:48.705Z,11.18
2018-04-26T06:40:10.593Z,11.25
2018-04-26T06:41:31.877Z,11.43
2018-04-26T06:42:53.701Z,11.69
2018-04-26T06:44:15.771Z,11.98
2018-04-26T06:45:37.577Z,12.09
2018-04-26T06:46:59.122Z,12.17
2018-04-26T06:48:21.178Z,12.29
2018-04-26T06:49:43.229Z,12.32
2018-04-26T06:51:05.298Z,12.35
2018-04-26T06:52:27.353Z,12.42
2018-04-26T06:53:49.434Z,12.41
2018-04-26T06:55:11.234Z,12.34
2018-04-26T06:56:33.304Z,12.41
2018-04-26T06:57:54.619Z,12.32
2018-04-26T06:59:16.163Z,12.23
2018-04-26T07:00:37.727Z,12.17
2018-04-26T07:01:59.812Z,12.01
2018-04-26T07:03:21.881Z,11.9
2018-04-26T07:04:43.951Z,11.72
2018-04-26T07:06:06.235Z,11.52
2018-04-26T07:07:28.366Z,11.43
2018-04-26T07:08:50.174Z,11.33
2018-04-26T07:10:12.258Z,11.29
2018-04-26T07:11:34.359Z,11.37
2018-04-26T07:12:56.469Z,11.28
2018-04-26T07:14:18.032Z,11.21
2018-04-26T07:15:39.853Z,11.03
2018-04-26T07:17:01.926Z,10.99
2018-04-26T07:18:23.744Z,11.1
2018-04-26T07:19:45.550Z,11.19
2018-04-26T07:21:07.350Z,11.37
2018-04-26T07:22:29.434Z,11.37
2018-04-26T07:23:51.507Z,11.62
2018-04-26T07:25:13.334Z,11.88
2018-04-26T07:26:35.155Z,12.17
2018-04-26T07:27:57.244Z,12.29
2018-04-26T07:29:19.325Z,12.05
2018-04-26T07:30:41.401Z,11.88
2018-04-26T07:32:03.460Z,11.61
2018-04-26T07:33:25.287Z,11.35
2018-04-26T07:34:47.095Z,10.88
2018-04-26T07:36:09.329Z,10.61
2018-04-26T07:37:31.404Z,10.41
2018-04-26T07:38:53.231Z,10.38
2018-04-26T07:40:15.299Z,10.23
2018-04-26T07:41:37.368Z,10.33
2018-04-26T07:42:59.183Z,10.32
2018-04-26T07:44:20.742Z,10.44
2018-04-26T07:45:42.555Z,10.56
2018-04-26T07:47:04.639Z,10.64
2018-04-26T07:48:26.443Z,10.73
2018-04-26T07:49:48.247Z,10.97
2018-04-26T07:51:10.315Z,11.29
2018-04-26T07:52:32.396Z,11.43
2018-04-26T07:53:54.223Z,11.61
2018-04-26T07:55:16.300Z,11.9
2018-04-26T07:56:38.403Z,12.1
2018-04-26T07:58:00.473Z,12.39
2018-04-26T07:59:22.286Z,12.5
2018-04-26T08:00:44.378Z,12.68
2018-04-26T08:02:06.210Z,12.64
2018-04-26T08:03:27.766Z,12.83
2018-04-26T08:04:49.829Z,12.89
2018-04-26T08:06:12.004Z,13.14
2018-04-26T08:07:34.094Z,13.22
2018-04-26T08:08:55.900Z,13.42
2018-04-26T08:10:17.459Z,13.45
2018-04-26T08:11:39.613Z,13.44
2018-04-26T08:13:02.021Z,13.63
2018-04-26T08:14:23.565Z,13.96
2018-04-26T08:15:45.351Z,14.17
2018-04-26T08:17:06.886Z,14.12
2018-04-26T08:18:28.945Z,14.1
2018-04-26T08:19:51.165Z,14.21
2018-04-26T08:21:13.241Z,14.14
2018-04-26T08:22:35.045Z,14.15
2018-04-26T08:23:56.842Z,14.27
2018-04-26T08:25:18.804Z,14.1
2018-04-26T08:26:40.895Z,13.59
2018-04-26T08:28:02.964Z,13.52
2018-04-26T08:29:25.041Z,13.45
2018-04-26T08:30:47.235Z,13.49
2018-04-26T08:32:09.323Z,13.49
2018-04-26T08:33:31.126Z,13.54
2018-04-26T08:34:52.668Z,13.55
2018-04-26T08:36:14.454Z,13.54
2018-04-26T08:37:36.534Z,13.51
2018-04-26T08:38:58.356Z,13.54
2018-04-26T08:40:19.900Z,13.22
2018-04-26T08:41:41.708Z,12.95
2018-04-26T08:43:03.836Z,12.74
2018-04-26T08:44:25.906Z,12.74
2018-04-26T08:45:48.077Z,13.1
2018-04-26T08:47:10.157Z,13.55
2018-04-26T08:48:31.962Z,14.51
2018-04-26T08:49:53.764Z,15.1
2018-04-26T08:51:15.841Z,15.49
2018-04-26T08:52:37.706Z,15.74
2018-04-26T08:53:59.502Z,16.11
2018-04-26T08:55:20.544Z,16.34
2018-04-26T08:56:42.613Z,16.15
2018-04-26T08:58:04.712Z,15.83
2018-04-26T08:59:26.800Z,15.56
2018-04-26T09:00:48.870Z,15.6
2018-04-26T09:02:10.949Z,15.76
2018-04-26T09:03:32.748Z,15.96
2018-04-26T09:04:54.835Z,15.96
2018-04-26T09:06:16.914Z,16.02
2018-04-26T09:07:38.986Z,16.12
2018-04-26T09:09:00.792Z,15.78
2018-04-26T09:10:22.344Z,15.72
2018-04-26T09:11:43.935Z,15.62
2018-04-26T09:13:05.483Z,15.67
2018-04-26T09:14:27.576Z,16.2
2018-04-26T09:15:49.743Z,16.68
2018-04-26T09:17:11.996Z,17.08
2018-04-26T09:18:34.067Z,17.48
2018-04-26T09:19:55.886Z,17.43
2018-04-26T09:21:17.968Z,17.81
2018-04-26T09:22:39.805Z,17.92
2018-04-26T09:24:01.636Z,18.14
2018-04-26T09:25:23.713Z,18.3
2018-04-26T09:26:45.848Z,18.3
2018-04-26T09:28:07.405Z,18.17
2018-04-26T09:29:29.485Z,17.97
2018-04-26T09:30:51.551Z,18.08
2018-04-26T09:32:13.366Z,18.35
2018-04-26T09:33:35.442Z,18.33
2018-04-26T09:34:56.999Z,17.87
2018-04-26T09:36:19.148Z,17.48
2018-04-26T09:37:40.964Z,17.37
2018-04-26T09:39:03.044Z,17.43
2018-04-26T09:40:25.127Z,17.52
2018-04-26T09:41:46.671Z,17.52
2018-04-26T09:43:08.783Z,17.36
2018-04-26T09:44:30.613Z,16.94
2018-04-26T09:45:51.900Z,16.42
2018-04-26T09:47:13.966Z,15.54
2018-04-26T09:48:35.582Z,14.58
2018-04-26T09:49:57.453Z,13.85
2018-04-26T09:51:19.535Z,13.39
2018-04-26T09:52:41.335Z,12.93
2018-04-26T09:54:02.877Z,12.56
2018-04-26T09:55:25.005Z,12.31
2018-04-26T09:56:47.120Z,12.17
2018-04-26T09:58:08.925Z,11.95
2018-04-26T09:59:30.479Z,11.96
2018-04-26T10:00:52.583Z,11.91
2018-04-26T10:02:14.118Z,12.02
2018-04-26T10:03:35.923Z,12.14
2018-04-26T10:04:57.748Z,12.45
2018-04-26T10:06:19.853Z,12.82
2018-04-26T10:07:41.946Z,13.17
2018-04-26T10:09:03.945Z,13.38
2018-04-26T10:10:26.083Z,13.51
2018-04-26T10:11:48.161Z,13.38
2018-04-26T10:13:10.241Z,13.04
2018-04-26T10:14:32.324Z,12.46
2018-04-26T10:15:54.406Z,11.82
2018-04-26T10:17:16.605Z,11.24
2018-04-26T10:18:38.685Z,10.92
2018-04-26T10:20:00.011Z,10.78
2018-04-26T10:21:22.129Z,10.6
2018-04-26T10:22:44.031Z,10.52
2018-04-26T10:24:06.086Z,10.63
2018-04-26T10:25:27.635Z,10.53
2018-04-26T10:26:49.723Z,10.66
2018-04-26T10:28:11.837Z,10.67
2018-04-26T10:29:33.924Z,10.67
2018-04-26T10:30:55.985Z,10.76
2018-04-26T10:32:18.050Z,10.88
2018-04-26T10:33:39.856Z,11.37
2018-04-26T10:35:01.943Z,11.9
2018-04-26T10:36:24.028Z,12.34
2018-04-26T10:37:45.574Z,12.93
2018-04-26T10:39:07.661Z,13.1
2018-04-26T10:40:29.466Z,13.07
2018-04-26T10:41:51.605Z,13.3
2018-04-26T10:43:13.415Z,13.42
2018-04-26T10:44:34.961Z,13.59
2018-04-26T10:45:57.063Z,13.91
2018-04-26T10:47:18.875Z,14.1
2018-04-26T10:48:40.964Z,14.21
2018-04-26T10:50:02.778Z,14.45
2018-04-26T10:51:24.613Z,14.46
2018-04-26T10:52:46.191Z,14.29
2018-04-26T10:54:08.095Z,14.37
2018-04-26T10:55:30.161Z,14.22
2018-04-26T10:56:52.252Z,14.06
2018-04-26T10:58:14.327Z,13.88
2018-04-26T10:59:35.899Z,13.81
2018-04-26T11:00:57.703Z,13.81
2018-04-26T11:02:19.769Z,13.79
2018-04-26T11:03:41.842Z,13.91
2018-04-26T11:05:03.661Z,14.07
2018-04-26T11:06:25.480Z,14.14
2018-04-26T11:07:47.024Z,14.24
2018-04-26T11:09:09.148Z,14.62
2018-04-26T11:10:30.789Z,14.46
2018-04-26T11:11:52.604Z,13.51
2018-04-26T11:13:14.673Z,12.37
2018-04-26T11:14:36.771Z,11.19
2018-04-26T11:15:58.582Z,10.3
2018-04-26T11:17:20.837Z,9.83
2018-04-26T11:18:42.746Z,9.57
2018-04-26T11:20:04.826Z,9.4
2018-04-26T11:21:27.161Z,9.38
2018-04-26T11:22:49.253Z,9.38
2018-04-26T11:24:11.075Z,9.42
2018-04-26T11:25:33.334Z,9.48
2018-04-26T11:26:55.415Z,9.57
2018-04-26T11:28:17.512Z,9.74
2018-04-26T11:29:39.325Z,9.81
2018-04-26T11:31:01.560Z,9.91
2018-04-26T11:32:23.403Z,9.93
2018-04-26T11:33:45.490Z,9.87
2018-04-26T11:35:07.299Z,9.84
2018-04-26T11:36:29.382Z,9.96
2018-04-26T11:37:51.456Z,10.02
2018-04-26T11:39:13.258Z,10.11
2018-04-26T11:40:35.329Z,10.32
2018-04-26T11:41:57.401Z,10.71
2018-04-26T11:43:19.472Z,10.97
2018-04-26T11:44:41.305Z,11.33
2018-04-26T11:46:03.123Z,11.65
2018-04-26T11:47:25.289Z,12.04
2018-04-26T11:48:47.439Z,12.37
2018-04-26T11:50:09.516Z,12.54
2018-04-26T11:51:31.311Z,12.77
2018-04-26T11:52:53.411Z,13.01
2018-04-26T11:54:15.241Z,13.07
2018-04-26T11:55:37.087Z,13.08
2018-04-26T11:56:59.179Z,13.1
2018-04-26T11:58:20.965Z,13.05
2018-04-26T11:59:42.265Z,13.03
2018-04-26T12:01:04.067Z,13.05
2018-04-26T12:02:26.365Z,13.05
2018-04-26T12:03:48.424Z,13.19
2018-04-26T12:05:10.242Z,13.33
2018-04-26T12:06:32.282Z,13.32
2018-04-26T12:07:54.468Z,13.45
2018-04-26T12:09:16.530Z,13.45
2018-04-26T12:10:38.385Z,13.51
2018-04-26T12:12:00.470Z,13.64
2018-04-26T12:13:22.356Z,13.85
2018-04-26T12:14:44.442Z,14.24
2018-04-26T12:16:06.537Z,14.65
2018-04-26T12:17:28.340Z,15.01
2018-04-26T12:18:50.148Z,15.06
2018-04-26T12:20:12.250Z,15.2
2018-04-26T12:21:34.332Z,15.02
2018-04-26T12:22:56.414Z,15.02
2018-04-26T12:24:18.675Z,14.95
2018-04-26T12:25:40.758Z,15.01
2018-04-26T12:27:02.584Z,15.07
2018-04-26T12:28:24.700Z,15.68
2018-04-26T12:29:46.772Z,16.14
2018-04-26T12:31:08.595Z,16.43
2018-04-26T12:32:30.678Z,16.45
2018-04-26T12:33:52.764Z,16.05
2018-04-26T12:35:14.701Z,15.87
2018-04-26T12:36:36.183Z,15.86
2018-04-26T12:37:58.252Z,15.93
2018-04-26T12:39:19.798Z,15.97
2018-04-26T12:40:41.624Z,15.8
2018-04-26T12:42:03.549Z,15.54
2018-04-26T12:43:25.652Z,15.54
2018-04-26T12:44:47.478Z,15.69
2018-04-26T12:46:09.601Z,16.07
2018-04-26T12:47:31.681Z,16.23
2018-04-26T12:48:53.763Z,15.76
2018-04-26T12:50:15.937Z,15.43
2018-04-26T12:51:37.798Z,15.02
2018-04-26T12:52:59.120Z,14.24
2018-04-26T12:54:20.659Z,13.78
2018-04-26T12:55:42.206Z,13.45
2018-04-26T12:57:04.025Z,13.22
2018-04-26T12:58:26.020Z,12.97
2018-04-26T12:59:48.148Z,12.83
2018-04-26T13:01:09.955Z,12.77
2018-04-26T13:02:31.781Z,12.72
2018-04-26T13:03:53.873Z,12.57
2018-04-26T13:05:15.809Z,12.65
2018-04-26T13:06:37.621Z,12.75
2018-04-26T13:07:59.570Z,13.03
2018-04-26T13:09:21.683Z,13.15
2018-04-26T13:10:43.803Z,13.36
2018-04-26T13:12:05.616Z,13.38
2018-04-26T13:13:27.455Z,13.45
2018-04-26T13:14:49.586Z,13.49
2018-04-26T13:16:11.398Z,13.6
2018-04-26T13:17:33.830Z,13.85
2018-04-26T13:18:56.009Z,14.24
2018-04-26T13:20:17.842Z,14.68
2018-04-26T13:21:39.981Z,15.02
2018-04-26T13:23:02.113Z,15.29
2018-04-26T13:24:24.227Z,15.43
2018-04-26T13:25:46.311Z,15.59
2018-04-26T13:27:08.442Z,15.35
2018-04-26T13:28:30.724Z,15.27
2018-04-26T13:29:52.345Z,15.11
2018-04-26T13:31:14.285Z,14.94
2018-04-26T13:32:36.105Z,14.94
2018-04-26T13:33:57.929Z,14.99
2018-04-26T13:35:20.068Z,14.94
2018-04-26T13:36:42.151Z,14.92
2018-04-26T13:38:03.993Z,14.99
2018-04-26T13:39:26.093Z,15.11
2018-04-26T13:40:47.950Z,15.02
2018-04-26T13:42:09.847Z,15.19
2018-04-26T13:43:31.673Z,15.17
2018-04-26T13:44:53.759Z,15.29
2018-04-26T13:46:15.708Z,15.17
2018-04-26T13:47:37.381Z,15.17
2018-04-26T13:48:59.233Z,14.8
2018-04-26T13:50:21.051Z,14.6
2018-04-26T13:51:43.116Z,14.39
2018-04-26T13:53:05.271Z,14.35
2018-04-26T13:54:27.081Z,14.36
2018-04-26T13:55:49.153Z,14.65
2018-04-26T13:57:11.075Z,14.81
2018-04-26T13:58:32.909Z,14.86
2018-04-26T13:59:54.737Z,14.91
2018-04-26T14:01:16.042Z,14.7
2018-04-26T14:02:38.134Z,14.39
2018-04-26T14:03:59.695Z,14.27
2018-04-26T14:05:21.520Z,14.04
2018-04-26T14:06:43.456Z,14
2018-04-26T14:08:05.565Z,14.04
2018-04-26T14:09:27.673Z,14.17
2018-04-26T14:10:49.259Z,14.36
2018-04-26T14:12:11.545Z,14.72
2018-04-26T14:13:33.678Z,15.11
2018-04-26T14:14:55.871Z,15.71
2018-04-26T14:16:17.731Z,15.83
2018-04-26T14:17:39.858Z,15.86
2018-04-26T14:19:01.933Z,15.57
2018-04-26T14:20:24.072Z,15.17
2018-04-26T14:21:46.169Z,15.01
2018-04-26T14:23:08.395Z,14.77
2018-04-26T14:24:30.807Z,14.58
2018-04-26T14:25:52.898Z,14.46
2018-04-26T14:27:14.458Z,14.52
2018-04-26T14:28:36.306Z,14.89
2018-04-26T14:29:58.400Z,15.09
2018-04-26T14:31:20.245Z,15.27
2018-04-26T14:32:41.537Z,15.11
2018-04-26T14:34:03.656Z,15.01
2018-04-26T14:35:25.502Z,15.01
2018-04-26T14:36:47.611Z,14.91
2018-04-26T14:38:09.707Z,14.58
2018-04-26T14:39:31.810Z,14.4
2018-04-26T14:40:53.917Z,14.33
2018-04-26T14:42:16.024Z,14.2
2018-04-26T14:43:37.897Z,13.81
2018-04-26T14:44:59.993Z,13.52
2018-04-26T14:46:21.852Z,13.32
2018-04-26T14:47:43.963Z,13.1
2018-04-26T14:49:06.055Z,12.92
2018-04-26T14:50:28.134Z,12.59
2018-04-26T14:51:50.005Z,12.14
2018-04-26T14:53:12.100Z,11.9
2018-04-26T14:54:34.194Z,11.75
2018-04-26T14:55:56.317Z,11.65
2018-04-26T14:57:18.431Z,11.52
2018-04-26T14:58:40.229Z,11.37
2018-04-26T15:00:02.316Z,11.55
2018-04-26T15:01:24.150Z,11.67
2018-04-26T15:02:45.735Z,12.23
2018-04-26T15:04:07.308Z,12.75
2018-04-26T15:05:29.606Z,13.19
2018-04-26T15:06:51.714Z,13.62
2018-04-26T15:08:13.808Z,13.84
2018-04-26T15:09:35.906Z,13.95
2018-04-26T15:10:57.718Z,13.96
2018-04-26T15:12:19.839Z,14.12
2018-04-26T15:13:41.913Z,14.24
2018-04-26T15:15:04.005Z,14.24
2018-04-26T15:16:25.592Z,14.32
2018-04-26T15:17:47.699Z,14.25
2018-04-26T15:19:09.286Z,14.45
2018-04-26T15:20:30.843Z,14.58
2018-04-26T15:21:53.168Z,14.7
2018-04-26T15:23:15.100Z,14.69
2018-04-26T15:24:36.929Z,14.46
2018-04-26T15:25:59.021Z,14.2
2018-04-26T15:27:20.880Z,14.2
2018-04-26T15:28:42.985Z,14.17
2018-04-26T15:30:05.089Z,14.18
2018-04-26T15:31:27.155Z,14.02
2018-04-26T15:32:49.289Z,13.96
2018-04-26T15:34:11.383Z,13.79
2018-04-26T15:35:33.200Z,13.64
2018-04-26T15:36:54.771Z,13.26
2018-04-26T15:38:16.873Z,13.05
2018-04-26T15:39:38.972Z,12.86
2018-04-26T15:41:00.813Z,12.6
2018-04-26T15:42:22.919Z,12.74
2018-04-26T15:43:44.516Z,12.67
2018-04-26T15:45:06.632Z,12.82
2018-04-26T15:46:28.745Z,12.97
2018-04-26T15:47:50.848Z,13.05
2018-04-26T15:49:12.916Z,13.25
2018-04-26T15:50:35.046Z,13.29
2018-04-26T15:51:57.168Z,13.51
2018-04-26T15:53:19.320Z,13.62
2018-04-26T15:54:41.440Z,13.85
2018-04-26T15:56:03.526Z,14.12
2018-04-26T15:57:25.612Z,14.4
2018-04-26T15:58:47.927Z,14.64
2018-04-26T16:00:09.463Z,14.7
2018-04-26T16:01:31.073Z,14.72
2018-04-26T16:02:53.047Z,14.88
2018-04-26T16:04:15.123Z,14.94
2018-04-26T16:05:37.212Z,14.86
2018-04-26T16:06:59.307Z,14.89
2018-04-26T16:08:21.129Z,15.03
2018-04-26T16:09:43.355Z,14.96
2018-04-26T16:11:05.449Z,15.03
2018-04-26T16:12:27.289Z,14.95
2018-04-26T16:13:49.126Z,14.86
2018-04-26T16:15:10.959Z,14.8
2018-04-26T16:16:33.062Z,14.69
2018-04-26T16:17:54.917Z,14.64
2018-04-26T16:19:17.032Z,14.46
2018-04-26T16:20:38.848Z,14.4
2018-04-26T16:22:00.675Z,14.22
2018-04-26T16:23:22.231Z,13.92
2018-04-26T16:24:44.321Z,13.85
2018-04-26T16:26:06.394Z,13.73
2018-04-26T16:27:28.511Z,13.51
2018-04-26T16:28:50.365Z,13.46
2018-04-26T16:30:12.452Z,13.51
2018-04-26T16:31:34.356Z,13.42
2018-04-26T16:32:56.470Z,13.51
2018-04-26T16:34:18.040Z,13.45
2018-04-26T16:35:39.877Z,13.25
2018-04-26T16:37:01.974Z,13.29
2018-04-26T16:38:23.831Z,13.46
2018-04-26T16:39:45.918Z,13.51
2018-04-26T16:41:08.041Z,13.59
2018-04-26T16:42:30.140Z,13.69
2018-04-26T16:43:52.248Z,13.64
2018-04-26T16:45:14.334Z,13.57
2018-04-26T16:46:36.443Z,13.54
2018-04-26T16:47:58.557Z,13.52
2018-04-26T16:49:20.662Z,13.48
2018-04-26T16:50:42.219Z,13.49
2018-04-26T16:52:04.300Z,13.6
2018-04-26T16:53:26.135Z,13.55
2018-04-26T16:54:48.249Z,13.51
2018-04-26T16:56:10.361Z,13.28
2018-04-26T16:57:31.923Z,13.2
2018-04-26T16:58:53.475Z,12.95
2018-04-26T17:00:15.044Z,12.79
2018-04-26T17:01:37.127Z,12.75
2018-04-26T17:02:58.953Z,12.6
2018-04-26T17:04:21.279Z,12.54
2018-04-26T17:05:43.247Z,12.65
2018-04-26T17:07:05.170Z,12.56
2018-04-26T17:08:27.462Z,12.57
2018-04-26T17:09:49.340Z,12.6
2018-04-26T17:11:11.459Z,12.59
2018-04-26T17:12:33.292Z,12.6
2018-04-26T17:13:55.382Z,12.57
2018-04-26T17:15:17.325Z,12.62
2018-04-26T17:16:39.276Z,12.57
2018-04-26T17:18:00.875Z,12.75
2018-04-26T17:19:22.960Z,12.75
2018-04-26T17:20:44.813Z,12.89
2018-04-26T17:22:06.994Z,13.11
2018-04-26T17:23:28.836Z,13.22
2018-04-26T17:24:51.031Z,13.42
2018-04-26T17:26:13.150Z,13.49
2018-04-26T17:27:34.453Z,13.63
2018-04-26T17:28:56.326Z,13.63
2018-04-26T17:30:18.422Z,13.46
2018-04-26T17:31:40.338Z,13.29
2018-04-26T17:33:02.469Z,13.05
2018-04-26T17:34:24.601Z,12.93
2018-04-26T17:35:46.735Z,12.78
2018-04-26T17:37:08.555Z,12.6
2018-04-26T17:38:30.704Z,12.54
2018-04-26T17:39:52.816Z,12.41
2018-04-26T17:41:14.942Z,12.37
2018-04-26T17:42:37.147Z,12.29
2018-04-26T17:43:59.274Z,12.14
2018-04-26T17:45:21.111Z,12.01
2018-04-26T17:46:42.751Z,11.99
2018-04-26T17:48:05.052Z,11.75
2018-04-26T17:49:27.189Z,11.72
2018-04-26T17:50:49.300Z,11.61